createdAt,value
2023-03-29T00:00:16.193Z,5.84
2023-03-29T00:02:47.910Z,5.81
2023-03-29T00:05:22.589Z,5.78
2023-03-29T00:07:53.562Z,5.80
2023-03-29T00:10:23.577Z,5.79
2023-03-29T00:12:52.452Z,5.75
2023-03-29T00:15:23.266Z,5.79
2023-03-29T00:17:51.853Z,5.75
2023-03-29T00:20:20.389Z,5.82
2023-03-29T00:22:49.275Z,5.89
2023-03-29T00:25:17.759Z,5.81
2023-03-29T00:27:46.587Z,5.71
2023-03-29T00:30:15.497Z,5.78
2023-03-29T00:32:46.825Z,5.88
2023-03-29T00:35:16.074Z,5.90
2023-03-29T00:37:46.676Z,5.88
2023-03-29T00:40:16.383Z,5.95
2023-03-29T00:42:46.732Z,5.91
2023-03-29T00:45:24.781Z,5.84
2023-03-29T00:47:59.499Z,5.93
2023-03-29T00:50:31.460Z,5.87
2023-03-29T00:53:05.058Z,5.91
2023-03-29T00:55:37.569Z,5.98
2023-03-29T00:58:09.522Z,5.93
2023-03-29T01:00:44.292Z,5.94
2023-03-29T01:03:24.111Z,6.00
2023-03-29T01:05:57.317Z,6.05
2023-03-29T01:08:31.116Z,6.00
2023-03-29T01:11:04.994Z,5.95
2023-03-29T01:13:39.304Z,5.91
2023-03-29T01:16:10.799Z,5.89
2023-03-29T01:18:41.874Z,5.95
2023-03-29T01:21:20.523Z,5.93
2023-03-29T01:24:06.248Z,5.93
2023-03-29T01:26:45.301Z,5.89
2023-03-29T01:29:21.926Z,5.88
2023-03-29T01:31:57.942Z,5.86
2023-03-29T01:34:31.674Z,5.84
2023-03-29T01:37:07.587Z,5.81
2023-03-29T01:39:36.669Z,5.81
2023-03-29T01:42:17.073Z,5.79
2023-03-29T01:44:56.451Z,5.74
2023-03-29T01:47:34.937Z,5.84
2023-03-29T01:50:13.991Z,5.86
2023-03-29T01:52:47.983Z,5.87
2023-03-29T01:55:20.164Z,5.81
2023-03-29T01:57:54.380Z,5.82
2023-03-29T02:00:28.969Z,5.81
2023-03-29T02:03:04.724Z,5.68
2023-03-29T02:05:35.226Z,5.69
2023-03-29T02:08:10.403Z,5.62
2023-03-29T02:10:40.095Z,5.59
2023-03-29T02:13:08.623Z,5.59
2023-03-29T02:15:39.419Z,5.68
2023-03-29T02:18:10.150Z,5.69
2023-03-29T02:20:41.908Z,5.62
2023-03-29T02:23:17.648Z,5.59
2023-03-29T02:25:47.224Z,5.65
2023-03-29T02:28:16.728Z,5.64
2023-03-29T02:30:55.284Z,5.59
2023-03-29T02:33:30.685Z,5.62
2023-03-29T02:36:04.742Z,5.71
2023-03-29T02:38:33.910Z,5.75
2023-03-29T02:41:03.457Z,5.74
2023-03-29T02:43:33.915Z,5.80
2023-03-29T02:46:05.820Z,5.79
2023-03-29T02:48:37.166Z,5.86
2023-03-29T02:51:11.761Z,5.84
2023-03-29T02:53:44.270Z,5.90
2023-03-29T02:56:12.649Z,5.88
2023-03-29T02:58:41.163Z,5.92
2023-03-29T03:01:12.404Z,5.99
2023-03-29T03:03:41.261Z,6.10
2023-03-29T03:06:10.186Z,6.05
2023-03-29T03:08:38.528Z,6.04
2023-03-29T03:11:07.929Z,6.11
2023-03-29T03:13:36.590Z,6.04
2023-03-29T03:16:05.064Z,6.05
2023-03-29T03:18:35.675Z,6.02
2023-03-29T03:21:05.238Z,6.03
2023-03-29T03:23:34.148Z,6.06
2023-03-29T03:26:02.760Z,6.08
2023-03-29T03:28:32.909Z,6.11
2023-03-29T03:31:02.298Z,6.06
2023-03-29T03:33:52.479Z,6.07
2023-03-29T03:36:46.764Z,5.99
2023-03-29T03:39:15.910Z,6.07
2023-03-29T03:41:44.502Z,5.96
2023-03-29T03:44:12.891Z,5.97
2023-03-29T03:46:41.928Z,5.97
2023-03-29T03:49:12.337Z,5.91
2023-03-29T03:51:44.940Z,5.89
2023-03-29T03:54:13.791Z,5.94
2023-03-29T03:57:02.680Z,5.96
2023-03-29T03:59:42.292Z,5.88
2023-03-29T04:02:14.550Z,5.89
2023-03-29T04:04:47.195Z,5.90
2023-03-29T04:07:19.738Z,5.87
2023-03-29T04:10:13.450Z,5.90
2023-03-29T04:12:52.380Z,5.73
2023-03-29T04:15:22.331Z,5.84
2023-03-29T04:17:58.300Z,5.81
2023-03-29T04:20:33.730Z,5.79
2023-03-29T04:23:02.955Z,5.77
2023-03-29T04:25:32.020Z,5.74
2023-03-29T04:28:00.681Z,5.75
2023-03-29T04:30:42.605Z,5.72
2023-03-29T04:33:18.399Z,5.68
2023-03-29T04:35:53.872Z,5.63
2023-03-29T04:38:24.202Z,5.59
2023-03-29T04:40:55.728Z,5.63
2023-03-29T04:43:47.895Z,5.69
2023-03-29T04:46:27.414Z,5.78
2023-03-29T04:49:13.948Z,5.71
2023-03-29T04:51:49.066Z,5.73
2023-03-29T04:54:22.130Z,5.81
2023-03-29T04:57:14.886Z,5.62
2023-03-29T04:59:56.368Z,5.61
2023-03-29T05:02:51.316Z,5.62
2023-03-29T05:05:20.544Z,5.68
2023-03-29T05:07:54.476Z,5.69
2023-03-29T05:10:28.063Z,5.69
2023-03-29T05:12:57.874Z,5.68
2023-03-29T05:15:26.345Z,5.72
2023-03-29T05:17:54.781Z,5.70
2023-03-29T05:20:24.461Z,5.75
2023-03-29T05:22:54.843Z,5.77
2023-03-29T05:25:43.363Z,5.79
2023-03-29T05:28:12.339Z,5.76
2023-03-29T05:30:40.659Z,5.84
2023-03-29T05:33:21.207Z,5.79
2023-03-29T05:35:49.616Z,5.82
2023-03-29T05:38:19.866Z,5.95
2023-03-29T05:40:49.567Z,5.87
2023-03-29T05:43:20.511Z,5.90
2023-03-29T05:45:49.085Z,5.99
2023-03-29T05:48:17.942Z,5.93
2023-03-29T05:50:48.839Z,6.01
2023-03-29T05:53:20.646Z,6.02
2023-03-29T05:55:49.669Z,6.03
2023-03-29T05:58:20.982Z,6.03
2023-03-29T06:00:51.514Z,6.06
2023-03-29T06:03:40.182Z,6.10
2023-03-29T06:06:09.911Z,6.02
2023-03-29T06:08:41.253Z,6.07
2023-03-29T06:11:35.842Z,6.13
2023-03-29T06:14:22.813Z,6.18
2023-03-29T06:16:56.736Z,6.18
2023-03-29T06:19:26.059Z,6.19
2023-03-29T06:21:55.788Z,6.27
2023-03-29T06:24:29.302Z,6.21
2023-03-29T06:27:03.797Z,6.30
2023-03-29T06:29:32.786Z,6.31
2023-03-29T06:32:01.810Z,6.39
2023-03-29T06:34:47.739Z,6.40
2023-03-29T06:37:26.066Z,6.48
2023-03-29T06:40:06.893Z,6.43
2023-03-29T06:42:42.595Z,6.49
2023-03-29T06:45:33.836Z,6.45
2023-03-29T06:48:07.055Z,6.47
2023-03-29T06:50:37.491Z,6.49
2023-03-29T06:53:15.099Z,6.67
2023-03-29T06:55:47.655Z,6.67
2023-03-29T06:58:35.065Z,6.66
2023-03-29T07:01:11.101Z,6.70
2023-03-29T07:03:48.797Z,6.81
2023-03-29T07:06:21.876Z,6.92
2023-03-29T07:08:52.886Z,6.91
2023-03-29T07:11:36.569Z,6.98
2023-03-29T07:14:20.938Z,6.92
2023-03-29T07:16:51.408Z,7.07
2023-03-29T07:19:35.145Z,7.16
2023-03-29T07:22:17.074Z,7.19
2023-03-29T07:24:50.596Z,7.29
2023-03-29T07:27:21.810Z,7.35
2023-03-29T07:29:51.764Z,7.32
2023-03-29T07:32:20.928Z,7.55
2023-03-29T07:34:57.323Z,7.74
2023-03-29T07:37:33.684Z,8.08
2023-03-29T07:40:08.475Z,8.49
2023-03-29T07:42:58.286Z,8.94
2023-03-29T07:45:32.175Z,8.85
2023-03-29T07:48:05.339Z,9.31
2023-03-29T07:50:48.335Z,9.39
2023-03-29T07:53:19.372Z,9.44
2023-03-29T07:55:49.412Z,9.63
2023-03-29T07:58:42.691Z,9.42
2023-03-29T08:01:17.185Z,9.22
2023-03-29T08:04:06.707Z,9.05
2023-03-29T08:07:08.596Z,9.09
2023-03-29T08:09:56.989Z,9.14
2023-03-29T08:12:38.751Z,9.19
2023-03-29T08:15:12.831Z,9.34
2023-03-29T08:17:42.666Z,9.48
2023-03-29T08:20:15.355Z,9.40
2023-03-29T08:22:46.176Z,9.30
2023-03-29T08:25:32.930Z,9.18
2023-03-29T08:28:02.936Z,9.12
2023-03-29T08:30:49.265Z,8.89
2023-03-29T08:33:17.791Z,8.99
2023-03-29T08:35:50.359Z,8.95
2023-03-29T08:38:32.333Z,9.14
2023-03-29T08:41:00.968Z,8.81
2023-03-29T08:43:52.980Z,8.98
2023-03-29T08:46:53.155Z,9.06
2023-03-29T08:49:46.041Z,9.12
2023-03-29T08:52:23.816Z,9.32
2023-03-29T08:54:56.479Z,9.30
2023-03-29T08:57:37.789Z,9.24
2023-03-29T09:00:24.800Z,9.32
2023-03-29T09:02:59.778Z,9.44
2023-03-29T09:05:34.611Z,9.42
2023-03-29T09:08:20.809Z,9.34
2023-03-29T09:11:12.533Z,9.35
2023-03-29T09:13:51.132Z,9.28
2023-03-29T09:16:27.859Z,9.20
2023-03-29T09:19:07.971Z,9.28
2023-03-29T09:21:46.141Z,9.29
2023-03-29T09:24:38.022Z,9.29
2023-03-29T09:27:22.569Z,9.37
2023-03-29T09:30:04.290Z,9.42
2023-03-29T09:32:53.875Z,9.33
2023-03-29T09:35:36.683Z,9.34
2023-03-29T09:38:08.920Z,9.48
2023-03-29T09:40:42.819Z,9.62
2023-03-29T09:43:23.129Z,9.69
2023-03-29T09:45:59.843Z,9.65
2023-03-29T09:48:31.296Z,9.77
2023-03-29T09:51:03.775Z,9.83
2023-03-29T09:53:32.595Z,9.68
2023-03-29T09:56:16.571Z,9.57
2023-03-29T09:58:49.761Z,9.69
2023-03-29T10:01:20.269Z,9.71
2023-03-29T10:03:53.006Z,9.69
2023-03-29T10:06:26.402Z,9.78
2023-03-29T10:08:59.298Z,9.89
2023-03-29T10:11:40.100Z,9.86
2023-03-29T10:14:16.198Z,9.75
2023-03-29T10:16:47.144Z,9.83
2023-03-29T10:19:21.944Z,9.78
2023-03-29T10:21:53.562Z,9.69
2023-03-29T10:24:22.495Z,9.60
2023-03-29T10:26:55.247Z,9.64
2023-03-29T10:29:25.423Z,9.72
2023-03-29T10:31:54.471Z,9.68
2023-03-29T10:34:27.613Z,9.79
2023-03-29T10:37:01.698Z,9.83
2023-03-29T10:39:35.197Z,10.07
2023-03-29T10:42:08.113Z,10.24
2023-03-29T10:44:38.186Z,10.20
2023-03-29T10:47:12.522Z,10.14
2023-03-29T10:49:48.061Z,10.16
2023-03-29T10:52:18.869Z,10.20
2023-03-29T10:54:48.164Z,9.93
2023-03-29T10:57:23.705Z,10.10
2023-03-29T10:59:59.323Z,10.12
2023-03-29T11:03:04.121Z,10.23
2023-03-29T11:05:40.497Z,10.25
2023-03-29T11:08:33.412Z,10.23
2023-03-29T11:11:17.094Z,10.37
2023-03-29T11:13:53.478Z,10.30
2023-03-29T11:16:30.061Z,10.44
2023-03-29T11:19:31.041Z,10.66
2023-03-29T11:22:09.255Z,10.99
2023-03-29T11:24:56.014Z,11.12
2023-03-29T11:27:34.274Z,11.23
2023-03-29T11:30:10.213Z,11.52
2023-03-29T11:32:49.491Z,11.98
2023-03-29T11:35:39.341Z,12.37
2023-03-29T11:38:17.462Z,12.47
2023-03-29T11:40:59.042Z,13.14
2023-03-29T11:43:31.953Z,14.07
2023-03-29T11:46:04.328Z,14.73
2023-03-29T11:48:38.280Z,14.29
2023-03-29T11:51:12.818Z,14.59
2023-03-29T11:53:50.734Z,14.78
2023-03-29T11:56:28.881Z,14.56
2023-03-29T11:59:04.196Z,14.07
2023-03-29T12:01:37.005Z,13.78
2023-03-29T12:04:12.831Z,13.27
2023-03-29T12:06:47.994Z,13.24
2023-03-29T12:09:27.096Z,13.33
2023-03-29T12:12:04.972Z,13.28
2023-03-29T12:14:51.273Z,13.47
2023-03-29T12:17:26.431Z,13.29
2023-03-29T12:20:04.106Z,13.20
2023-03-29T12:22:34.147Z,12.95
2023-03-29T12:25:06.512Z,12.74
2023-03-29T12:27:41.321Z,12.77
2023-03-29T12:30:26.779Z,12.74
2023-03-29T12:33:17.365Z,12.85
2023-03-29T12:36:21.300Z,13.03
2023-03-29T12:39:26.315Z,13.03
2023-03-29T12:42:18.276Z,13.05
2023-03-29T12:45:19.642Z,13.33
2023-03-29T12:47:49.483Z,13.35
2023-03-29T12:50:27.869Z,12.97
2023-03-29T12:53:07.639Z,12.78
2023-03-29T12:55:50.541Z,12.95
2023-03-29T12:58:37.992Z,12.88
2023-03-29T13:01:11.190Z,13.02
2023-03-29T13:03:51.263Z,13.20
2023-03-29T13:06:32.552Z,13.21
2023-03-29T13:09:04.579Z,13.05
2023-03-29T13:11:40.170Z,13.21
2023-03-29T13:14:16.099Z,13.32
2023-03-29T13:16:46.806Z,13.25
2023-03-29T13:19:35.758Z,13.38
2023-03-29T13:22:21.224Z,13.32
2023-03-29T13:25:10.054Z,13.39
2023-03-29T13:27:51.289Z,13.52
2023-03-29T13:30:27.270Z,13.26
2023-03-29T13:33:16.006Z,13.02
2023-03-29T13:35:53.121Z,13.06
2023-03-29T13:38:25.884Z,13.03
2023-03-29T13:41:03.029Z,12.95
2023-03-29T13:43:34.656Z,12.84
2023-03-29T13:46:26.001Z,12.92
2023-03-29T13:49:02.514Z,12.84
2023-03-29T13:51:38.770Z,12.99
2023-03-29T13:54:33.857Z,13.03
2023-03-29T13:57:10.311Z,12.97
2023-03-29T13:59:46.768Z,13.01
2023-03-29T14:02:23.354Z,12.80
2023-03-29T14:04:55.422Z,12.69
2023-03-29T14:07:25.957Z,12.59
2023-03-29T14:09:57.567Z,12.65
2023-03-29T14:12:28.794Z,12.73
2023-03-29T14:15:03.184Z,12.49
2023-03-29T14:17:33.339Z,12.31
2023-03-29T14:20:08.457Z,12.21
2023-03-29T14:22:37.294Z,12.15
2023-03-29T14:25:13.700Z,12.05
2023-03-29T14:27:43.303Z,11.99
2023-03-29T14:30:26.837Z,11.89
2023-03-29T14:32:56.254Z,11.90
2023-03-29T14:35:34.488Z,11.97
2023-03-29T14:38:03.797Z,11.95
2023-03-29T14:40:33.433Z,11.92
2023-03-29T14:43:07.452Z,11.81
2023-03-29T14:45:36.145Z,11.88
2023-03-29T14:48:05.154Z,11.87
2023-03-29T14:50:35.967Z,11.82
2023-03-29T14:53:05.543Z,11.80
2023-03-29T14:55:36.036Z,11.74
2023-03-29T14:58:04.371Z,11.82
2023-03-29T15:00:41.789Z,11.80
2023-03-29T15:03:15.400Z,11.82
2023-03-29T15:05:50.630Z,11.70
2023-03-29T15:08:24.965Z,11.64
2023-03-29T15:10:53.415Z,11.69
2023-03-29T15:13:25.367Z,11.73
2023-03-29T15:15:57.391Z,11.78
2023-03-29T15:18:33.867Z,11.77
2023-03-29T15:21:04.583Z,11.84
2023-03-29T15:23:38.230Z,11.81
2023-03-29T15:26:14.725Z,11.85
2023-03-29T15:28:48.413Z,11.85
2023-03-29T15:31:20.534Z,11.71
2023-03-29T15:33:48.970Z,11.72
2023-03-29T15:36:19.259Z,11.62
2023-03-29T15:38:50.150Z,11.59
2023-03-29T15:41:18.634Z,11.58
2023-03-29T15:43:46.836Z,11.49
2023-03-29T15:46:15.911Z,11.58
2023-03-29T15:48:44.589Z,11.57
2023-03-29T15:51:13.365Z,11.61
2023-03-29T15:53:43.716Z,11.52
2023-03-29T15:56:18.922Z,11.47
2023-03-29T15:58:49.082Z,11.55
2023-03-29T16:01:33.437Z,11.57
2023-03-29T16:04:02.199Z,11.67
2023-03-29T16:06:30.460Z,11.80
2023-03-29T16:09:00.816Z,11.75
2023-03-29T16:11:29.802Z,11.83
2023-03-29T16:13:58.889Z,11.79
2023-03-29T16:16:27.575Z,11.85
2023-03-29T16:18:55.905Z,11.90
2023-03-29T16:21:25.106Z,11.75
2023-03-29T16:23:53.551Z,11.80
2023-03-29T16:26:25.609Z,11.92
2023-03-29T16:28:54.070Z,12.00
2023-03-29T16:31:23.005Z,11.95
2023-03-29T16:33:51.964Z,11.92
2023-03-29T16:36:20.432Z,11.93
2023-03-29T16:38:48.830Z,11.97
2023-03-29T16:41:18.914Z,11.95
2023-03-29T16:43:49.182Z,11.89
2023-03-29T16:46:17.688Z,11.92
2023-03-29T16:48:46.102Z,11.88
2023-03-29T16:51:14.403Z,11.86
2023-03-29T16:53:42.762Z,11.87
2023-03-29T16:56:11.726Z,11.86
2023-03-29T16:58:40.723Z,11.86
2023-03-29T17:01:12.952Z,11.92
2023-03-29T17:03:42.140Z,11.86
2023-03-29T17:06:12.270Z,11.90
2023-03-29T17:08:41.918Z,11.93
2023-03-29T17:11:10.942Z,11.94
2023-03-29T17:13:40.291Z,11.91
2023-03-29T17:16:11.339Z,11.91
2023-03-29T17:18:39.789Z,11.97
2023-03-29T17:21:09.086Z,11.98
2023-03-29T17:23:37.516Z,12.00
2023-03-29T17:26:06.523Z,11.96
2023-03-29T17:28:35.530Z,11.87
2023-03-29T17:31:08.647Z,11.86
2023-03-29T17:33:39.073Z,11.89
2023-03-29T17:36:09.128Z,11.89
2023-03-29T17:38:37.969Z,11.95
2023-03-29T17:41:07.749Z,11.90
2023-03-29T17:43:36.425Z,11.95
2023-03-29T17:46:05.271Z,11.93
2023-03-29T17:48:34.250Z,11.94
2023-03-29T17:51:04.916Z,11.93
2023-03-29T17:53:33.577Z,11.96
2023-03-29T17:56:02.304Z,12.04
2023-03-29T17:58:31.489Z,12.07
2023-03-29T18:01:00.244Z,12.14
2023-03-29T18:03:28.967Z,12.17
2023-03-29T18:05:58.089Z,12.20
2023-03-29T18:08:28.603Z,12.23
2023-03-29T18:10:57.164Z,12.18
2023-03-29T18:13:26.120Z,12.26
2023-03-29T18:15:57.256Z,12.18
2023-03-29T18:18:26.184Z,12.19
2023-03-29T18:20:54.604Z,12.20
2023-03-29T18:23:23.160Z,12.19
2023-03-29T18:25:53.617Z,12.21
2023-03-29T18:28:24.492Z,12.19
2023-03-29T18:30:53.087Z,12.23
2023-03-29T18:33:21.594Z,12.27
2023-03-29T18:35:51.368Z,12.25
2023-03-29T18:38:21.008Z,12.15
2023-03-29T18:40:49.573Z,12.07
2023-03-29T18:43:20.182Z,11.98
2023-03-29T18:45:49.172Z,11.99
2023-03-29T18:48:17.645Z,12.02
2023-03-29T18:50:46.674Z,11.99
2023-03-29T18:53:15.423Z,11.95
2023-03-29T18:55:44.411Z,11.95
2023-03-29T18:58:13.510Z,11.99
2023-03-29T19:00:44.725Z,11.96
2023-03-29T19:03:13.279Z,11.90
2023-03-29T19:05:42.776Z,11.91
2023-03-29T19:08:11.299Z,11.80
2023-03-29T19:10:40.806Z,11.82
2023-03-29T19:13:09.199Z,11.76
2023-03-29T19:15:39.461Z,11.76
2023-03-29T19:18:10.020Z,11.74
2023-03-29T19:20:39.144Z,11.74
2023-03-29T19:23:07.530Z,11.71
2023-03-29T19:25:36.127Z,11.68
2023-03-29T19:28:04.969Z,11.68
2023-03-29T19:30:33.220Z,11.62
2023-03-29T19:33:01.664Z,11.56
2023-03-29T19:35:32.316Z,11.51
2023-03-29T19:38:03.808Z,11.44
2023-03-29T19:40:32.253Z,11.44
2023-03-29T19:43:00.893Z,11.43
2023-03-29T19:45:29.857Z,11.45
2023-03-29T19:48:02.830Z,11.46
2023-03-29T19:50:34.003Z,11.39
2023-03-29T19:53:02.278Z,11.31
2023-03-29T19:55:30.606Z,11.41
2023-03-29T19:57:59.346Z,11.40
2023-03-29T20:00:27.972Z,11.42
2023-03-29T20:02:56.455Z,11.38
2023-03-29T20:05:25.575Z,11.35
2023-03-29T20:07:55.896Z,11.21
2023-03-29T20:10:24.407Z,11.08
2023-03-29T20:12:52.810Z,10.91
2023-03-29T20:15:24.929Z,10.86
2023-03-29T20:17:55.330Z,10.80
2023-03-29T20:20:27.911Z,10.77
2023-03-29T20:23:03.699Z,10.78
2023-03-29T20:25:33.644Z,10.73
2023-03-29T20:28:01.985Z,10.74
2023-03-29T20:30:30.593Z,10.75
2023-03-29T20:32:58.917Z,10.75
2023-03-29T20:35:27.887Z,10.77
2023-03-29T20:38:00.560Z,10.74
2023-03-29T20:40:29.606Z,10.72
2023-03-29T20:42:58.021Z,10.65
2023-03-29T20:45:27.041Z,10.63
2023-03-29T20:48:01.876Z,10.67
2023-03-29T20:50:30.745Z,10.67
2023-03-29T20:53:03.113Z,10.70
2023-03-29T20:55:32.747Z,10.71
2023-03-29T20:58:02.155Z,10.71
2023-03-29T21:00:33.216Z,10.73
2023-03-29T21:03:04.371Z,10.72
2023-03-29T21:05:34.740Z,10.69
2023-03-29T21:08:05.170Z,10.69
2023-03-29T21:10:36.000Z,10.62
2023-03-29T21:13:04.370Z,10.58
2023-03-29T21:15:33.153Z,10.56
2023-03-29T21:18:09.651Z,10.55
2023-03-29T21:20:39.090Z,10.59
2023-03-29T21:23:09.444Z,10.59
2023-03-29T21:25:37.962Z,10.61
2023-03-29T21:28:06.214Z,10.57
2023-03-29T21:30:34.993Z,10.52
2023-03-29T21:33:03.592Z,10.56
2023-03-29T21:35:32.803Z,10.61
2023-03-29T21:38:01.518Z,10.60
2023-03-29T21:40:31.733Z,10.62
2023-03-29T21:43:00.169Z,10.59
2023-03-29T21:45:28.572Z,10.70
2023-03-29T21:47:58.577Z,10.70
2023-03-29T21:50:27.140Z,10.72
2023-03-29T21:52:55.510Z,10.72
2023-03-29T21:55:23.924Z,10.71
2023-03-29T21:57:54.206Z,10.69
2023-03-29T22:00:22.572Z,10.73
2023-03-29T22:02:51.245Z,10.79
2023-03-29T22:05:19.957Z,10.81
2023-03-29T22:07:49.925Z,10.76
2023-03-29T22:10:22.200Z,10.62
2023-03-29T22:12:51.235Z,10.46
2023-03-29T22:15:22.122Z,10.45
2023-03-29T22:17:52.879Z,10.42
2023-03-29T22:20:21.978Z,10.40
2023-03-29T22:22:53.616Z,10.38
2023-03-29T22:25:22.311Z,10.37
2023-03-29T22:27:51.528Z,10.34
2023-03-29T22:30:22.286Z,10.33
2023-03-29T22:32:51.293Z,10.30
2023-03-29T22:35:20.180Z,10.30
2023-03-29T22:37:48.570Z,10.33
2023-03-29T22:40:17.479Z,10.33
2023-03-29T22:42:45.781Z,10.42
2023-03-29T22:45:14.465Z,10.47
2023-03-29T22:47:44.962Z,10.51
2023-03-29T22:50:13.477Z,10.52
2023-03-29T22:52:41.780Z,10.41
2023-03-29T22:55:11.279Z,10.42
2023-03-29T22:57:39.638Z,10.41
2023-03-29T23:00:09.950Z,10.42
2023-03-29T23:02:38.493Z,10.40
2023-03-29T23:05:10.066Z,10.37
2023-03-29T23:07:38.644Z,10.32
2023-03-29T23:10:08.619Z,10.38
2023-03-29T23:12:37.959Z,10.38
2023-03-29T23:15:07.976Z,10.44
2023-03-29T23:17:36.665Z,10.44
2023-03-29T23:20:07.897Z,10.44
2023-03-29T23:22:39.256Z,10.45
2023-03-29T23:25:08.731Z,10.43
2023-03-29T23:27:39.101Z,10.37
2023-03-29T23:30:10.172Z,10.43
2023-03-29T23:32:38.768Z,10.42
2023-03-29T23:35:08.003Z,10.44
2023-03-29T23:37:38.880Z,10.44
2023-03-29T23:40:11.182Z,10.42
2023-03-29T23:42:40.713Z,10.44
2023-03-29T23:45:12.279Z,10.42
2023-03-29T23:47:41.862Z,10.41
2023-03-29T23:50:12.723Z,10.39
2023-03-29T23:52:43.376Z,10.38
2023-03-29T23:55:15.947Z,10.40
2023-03-29T23:57:44.516Z,10.41
